If you wish to contribute or participate in the discussions about articles you are invited to join SKYbrary as a registered user

DNEN

From SKYbrary Wiki

Jump to: navigation, search
Airport
Code DNEN
Name Enugu
Region Africa
Territory Nigeria
Location Enugu
Elevation

142.036804 m466 ft

Coordinates 6° 28' 32" N, 7° 33' 43" E
All Airports
in DN
DNAA, DNEN, DNMM, DNPO
Runways
Designator Length Width Surface
8/26 2402 m7,880.577 ft 45 m147.638 ft ASP


METAR
Observation DNEN 201000Z 24009KT 9999 BKN013 FEW020CB 30/24 Q1012 NOSIG
Station Enugu
Elevation 137 metres
Date/Time 20 April 2014 10:00:00
Wind direction 240°
Wind speed 09 kts
Clouds broken clouds
Clouds code BKN
Temperature 30°C
Dew point 24°C
Humidity 70%
QNH 1012 hPa
Weather condition n/a


Enugu International Airport

ICAO: DNEN IATA: ENU

Description

Akanu Ibiam International Airport, also known as Enugu Airport, is an airport serving Enugu, a city in the Enugu State of Nigeria.

Climatology

Tropical Savanna climate (Köppen climate classification Aw)

Maps

Terrain

Loading map...

Airport Layout

Loading map...


Accidents & Serious Incidents at or in vicinity of DNEN

None on SKYbrary

Personal tools